Terminal Aerodrome Forecast
Issued by NWS Sioux Falls, SD

Home | Current Version | Previous Version | Text Only | Print | Product List | Glossary On
Versions: 1 2 3 4 5 6 7 8 9 10 11 12 13 14
007
FTUS43 KFSD 311724 CCA
TAFHON
TAF COR
KHON 311724Z 3118/0118 29015G25KT P6SM SCT120
     FM010200 26008KT P6SM BKN100
     FM011400 30014KT P6SM SCT100=

USA.gov is the U.S. government's official web portal to all federal, state and local government web resources and services.